Time;durP1;ratioP1;P1;durP2;ratioP2;P2;SDS_P1;SDS_P2;PMS_P1;PMS_P2;Temp;Humidity;BMP_temperature;BMP_pressure;BME280_temperature;BME280_humidity;BME280_pressure;Samples;Min_cycle;Max_cycle;Signal;HPM_P1;HPM_P2
2022/04/02 00:01:22;;;;;;;;;;;3.80;99.90;;;;;;4302630;33;44156;-88
2022/04/02 00:03:49;;;;;;;;;;;3.70;99.90;;;;;;4289953;33;43013;-87
2022/04/02 00:06:17;;;;;;;;;;;3.80;99.90;;;;;;4302894;33;43980;-88
2022/04/02 00:08:44;;;;;;;;;;;3.70;99.90;;;;;;4289627;33;43228;-88
2022/04/02 00:11:11;;;;;;;;;;;3.70;99.90;;;;;;4302837;33;42731;-88
2022/04/02 00:13:38;;;;;;;;;;;3.70;99.90;;;;;;4302429;33;43944;-87
2022/04/02 00:16:05;;;;;;;;;;;3.70;99.90;;;;;;4289885;33;44201;-88
2022/04/02 00:18:33;;;;;;;;;;;3.70;99.90;;;;;;4302634;33;43275;-87
2022/04/02 00:21:00;;;;;;;;;;;3.70;99.90;;;;;;4302605;33;45653;-88
2022/04/02 00:23:35;;;;;;;;;;;3.80;99.90;;;;;;4302634;33;44183;-87
2022/04/02 00:26:04;;;;;;;;;;;3.80;99.90;;;;;;4289758;33;45110;-87
2022/04/02 00:28:36;;;;;;;;;;;3.70;99.90;;;;;;4302434;33;43702;-87
2022/04/02 00:31:04;;;;;;;;;;;3.80;99.90;;;;;;4302337;33;44609;-87
2022/04/02 00:33:32;;;;;;;;;;;3.80;99.90;;;;;;4289571;33;43892;-87
2022/04/02 00:35:59;;;;;;;;;;;3.80;99.90;;;;;;4289190;33;42974;-87
2022/04/02 00:38:26;;;;;;;;;;;3.80;99.90;;;;;;4302503;33;44113;-88
2022/04/02 00:40:53;;;;;;;;;;;3.80;99.90;;;;;;4302131;33;43834;-87
2022/04/02 00:43:28;;;;;;;;;;;3.80;99.90;;;;;;4302011;33;42604;-87
2022/04/02 00:45:56;;;;;;;;;;;3.80;99.90;;;;;;4302070;33;44271;-87
2022/04/02 00:48:24;;;;;;;;;;;3.80;99.90;;;;;;4301866;33;44767;-87
2022/04/02 00:50:52;;;;;;;;;;;3.80;99.90;;;;;;4289338;33;42201;-87
2022/04/02 00:53:20;;;;;;;;;;;3.80;99.90;;;;;;4288893;33;43600;-87
2022/04/02 00:55:47;;;;;;;;;;;3.70;99.90;;;;;;4302132;33;44361;-87
2022/04/02 00:58:15;;;;;;;;;;;3.70;99.90;;;;;;4288660;33;44617;-87
2022/04/02 01:00:42;;;;;;;;;;;3.70;99.90;;;;;;4302008;33;43421;-87
2022/04/02 01:03:11;;;;;;;;;;;3.70;99.90;;;;;;4288339;33;45076;-87
2022/04/02 01:05:40;;;;;;;;;;;3.70;99.90;;;;;;4301678;33;44015;-88
2022/04/02 01:08:07;;;;;;;;;;;3.70;99.90;;;;;;4301822;33;44988;-87
2022/04/02 01:10:36;;;;;;;;;;;3.70;99.90;;;;;;4289276;33;43026;-88
2022/04/02 01:13:03;;;;;;;;;;;3.70;99.90;;;;;;4301578;33;43504;-88
2022/04/02 01:15:30;;;;;;;;;;;3.70;99.90;;;;;;4302003;33;43380;-88
2022/04/02 01:17:57;;;;;;;;;;;3.70;99.90;;;;;;4288596;33;42398;-87
2022/04/02 01:20:27;;;;;;;;;;;3.70;99.90;;;;;;4301963;33;45797;-88
2022/04/02 01:22:54;;;;;;;;;;;3.70;99.90;;;;;;4301493;33;44050;-88
2022/04/02 01:25:21;;;;;;;;;;;3.60;99.90;;;;;;4301758;33;44075;-88
2022/04/02 01:27:48;;;;;;;;;;;3.60;99.90;;;;;;4288881;33;43034;-88
2022/04/02 01:30:15;;;;;;;;;;;3.60;99.90;;;;;;4288456;33;43543;-88
2022/04/02 01:32:42;;;;;;;;;;;3.60;99.90;;;;;;4288611;33;43523;-88
2022/04/02 01:35:10;;;;;;;;;;;3.60;99.90;;;;;;4302030;33;44274;-88
2022/04/02 01:37:38;;;;;;;;;;;3.60;99.90;;;;;;4301473;33;43234;-88
2022/04/02 01:40:06;;;;;;;;;;;3.60;99.90;;;;;;4288896;33;42367;-88
2022/04/02 01:42:33;;;;;;;;;;;3.60;99.90;;;;;;4288829;33;44448;-88
2022/04/02 01:45:00;;;;;;;;;;;3.60;99.90;;;;;;4288792;33;42954;-88
2022/04/02 01:47:27;;;;;;;;;;;3.60;99.90;;;;;;4301906;33;44714;-88
2022/04/02 01:49:54;;;;;;;;;;;3.60;99.90;;;;;;4288928;33;44313;-88
2022/04/02 01:52:21;;;;;;;;;;;3.60;99.90;;;;;;4301425;33;44143;-89
2022/04/02 01:54:48;;;;;;;;;;;3.60;99.90;;;;;;4301337;33;43028;-88
2022/04/02 01:57:16;;;;;;;;;;;3.60;99.90;;;;;;4288413;33;42891;-89
2022/04/02 01:59:49;;;;;;;;;;;3.50;99.90;;;;;;4288387;33;43638;-88
2022/04/02 02:02:17;;;;;;;;;;;3.50;99.90;;;;;;4301585;33;44706;-88
2022/04/02 02:04:44;;;;;;;;;;;3.50;99.90;;;;;;4302121;33;43325;-88
2022/04/02 02:07:11;;;;;;;;;;;3.50;99.90;;;;;;4301824;33;44952;-89
2022/04/02 02:09:38;;;;;;;;;;;3.50;99.90;;;;;;4301740;33;43208;-89
2022/04/02 02:12:05;;;;;;;;;;;3.50;99.90;;;;;;4300522;33;44924;-89
2022/04/02 02:14:33;;;;;;;;;;;3.50;99.90;;;;;;4304030;33;45731;-90
2022/04/02 02:17:00;;;;;;;;;;;3.50;99.90;;;;;;4303811;33;44645;-89
2022/04/02 02:19:27;;;;;;;;;;;3.50;99.90;;;;;;4291664;33;42775;-90
2022/04/02 02:21:54;;;;;;;;;;;3.50;99.90;;;;;;4304631;33;42934;-88
2022/04/02 02:24:21;;;;;;;;;;;3.50;99.90;;;;;;4304793;33;44233;-89
2022/04/02 02:26:48;;;;;;;;;;;3.50;99.90;;;;;;4304622;33;42136;-89
2022/04/02 02:29:15;;;;;;;;;;;3.50;99.90;;;;;;4304528;33;43751;-89
2022/04/02 02:31:42;;;;;;;;;;;3.40;99.90;;;;;;4291298;33;43419;-89
2022/04/02 02:36:55;;;;;;;;;;;3.50;99.90;;;;;;4305053;33;43341;-89
2022/04/02 02:39:22;;;;;;;;;;;3.50;99.90;;;;;;4304455;33;43321;-89
2022/04/02 02:41:49;;;;;;;;;;;3.40;99.90;;;;;;4304162;33;45062;-89
2022/04/02 02:44:16;;;;;;;;;;;3.40;99.90;;;;;;4291245;33;43844;-89
2022/04/02 02:46:43;;;;;;;;;;;3.40;99.90;;;;;;4304798;33;43376;-89
2022/04/02 02:49:11;;;;;;;;;;;3.40;99.90;;;;;;4304331;33;43477;-89
2022/04/02 02:51:38;;;;;;;;;;;3.40;99.90;;;;;;4291357;33;44376;-88
2022/04/02 02:54:05;;;;;;;;;;;3.40;99.90;;;;;;4304242;33;44032;-88
2022/04/02 02:56:32;;;;;;;;;;;3.40;99.90;;;;;;4304345;33;44263;-89
2022/04/02 02:58:59;;;;;;;;;;;3.40;99.90;;;;;;4291743;33;20400;-89
2022/04/02 03:01:26;;;;;;;;;;;3.30;99.90;;;;;;4303875;33;43325;-89
2022/04/02 03:03:53;;;;;;;;;;;3.40;99.90;;;;;;4303987;33;44153;-89
2022/04/02 03:06:20;;;;;;;;;;;3.30;99.90;;;;;;4291239;33;43808;-89
2022/04/02 03:08:47;;;;;;;;;;;3.30;99.90;;;;;;4291207;33;42175;-89
2022/04/02 03:11:14;;;;;;;;;;;3.40;99.90;;;;;;4304041;33;42300;-89
2022/04/02 03:13:41;;;;;;;;;;;3.40;99.90;;;;;;4303707;33;44241;-88
2022/04/02 03:16:11;;;;;;;;;;;3.40;99.90;;;;;;4304385;33;43259;-89
2022/04/02 03:18:38;;;;;;;;;;;3.40;99.90;;;;;;4291082;33;45015;-89
2022/04/02 03:21:05;;;;;;;;;;;3.40;99.90;;;;;;4303638;33;43446;-88
2022/04/02 03:23:32;;;;;;;;;;;3.40;99.90;;;;;;4290730;33;44313;-87
2022/04/02 03:25:59;;;;;;;;;;;3.30;99.90;;;;;;4289622;33;43404;-88
2022/04/02 03:28:26;;;;;;;;;;;3.30;99.90;;;;;;4303273;33;44536;-89
2022/04/02 03:30:53;;;;;;;;;;;3.30;99.90;;;;;;4290711;33;42659;-89
2022/04/02 03:33:21;;;;;;;;;;;3.30;99.90;;;;;;4290486;33;43473;-89
2022/04/02 03:35:48;;;;;;;;;;;3.30;99.90;;;;;;4303790;33;44767;-89
2022/04/02 03:38:16;;;;;;;;;;;3.30;99.90;;;;;;4303734;33;43917;-89
2022/04/02 03:40:43;;;;;;;;;;;3.30;99.90;;;;;;4303554;33;44332;-89
2022/04/02 03:43:10;;;;;;;;;;;3.30;99.90;;;;;;4290836;33;43198;-89
2022/04/02 03:45:38;;;;;;;;;;;3.30;99.90;;;;;;4303615;33;43098;-89
2022/04/02 03:48:07;;;;;;;;;;;3.30;99.90;;;;;;4303456;33;45689;-89
2022/04/02 03:50:34;;;;;;;;;;;3.30;99.90;;;;;;4290651;33;42253;-89
2022/04/02 03:53:01;;;;;;;;;;;3.30;99.90;;;;;;4302324;33;44147;-89
2022/04/02 03:55:28;;;;;;;;;;;3.30;99.90;;;;;;4302905;33;44004;-89
2022/04/02 03:57:55;;;;;;;;;;;3.30;99.90;;;;;;4303062;33;44886;-89
2022/04/02 04:00:23;;;;;;;;;;;3.30;99.90;;;;;;4303596;33;45546;-89
2022/04/02 04:02:50;;;;;;;;;;;3.30;99.90;;;;;;4303262;33;43476;-89
2022/04/02 04:05:19;;;;;;;;;;;3.30;99.90;;;;;;4290449;33;42653;-89
2022/04/02 04:07:46;;;;;;;;;;;3.30;99.90;;;;;;4301836;33;44259;-89
2022/04/02 04:10:13;;;;;;;;;;;3.30;99.90;;;;;;4289919;33;43126;-88
2022/04/02 04:12:45;;;;;;;;;;;3.30;99.90;;;;;;4303152;33;44074;-89
2022/04/02 04:15:12;;;;;;;;;;;3.30;99.90;;;;;;4290005;33;45744;-88
2022/04/02 04:17:41;;;;;;;;;;;3.40;99.90;;;;;;4289730;33;43237;-88
2022/04/02 04:20:09;;;;;;;;;;;3.40;99.90;;;;;;4290305;33;42930;-89
2022/04/02 04:22:36;;;;;;;;;;;3.30;99.90;;;;;;4289780;33;44210;-88
2022/04/02 04:25:03;;;;;;;;;;;3.40;99.90;;;;;;4302688;33;44096;-88
2022/04/02 04:27:31;;;;;;;;;;;3.40;99.90;;;;;;4303105;33;44267;-88
2022/04/02 04:29:58;;;;;;;;;;;3.40;99.90;;;;;;4290696;33;20010;-88
2022/04/02 04:32:25;;;;;;;;;;;3.40;99.90;;;;;;4302735;33;45493;-88
2022/04/02 04:34:54;;;;;;;;;;;3.40;99.90;;;;;;4289536;33;45785;-88
2022/04/02 04:37:22;;;;;;;;;;;3.40;99.90;;;;;;4289482;33;43205;-88
2022/04/02 04:39:49;;;;;;;;;;;3.40;99.80;;;;;;4289360;33;44299;-87
2022/04/02 04:42:16;;;;;;;;;;;3.40;99.80;;;;;;4289472;33;44807;-89
2022/04/02 04:44:43;;;;;;;;;;;3.40;99.80;;;;;;4302601;33;43423;-88
2022/04/02 04:47:10;;;;;;;;;;;3.40;99.80;;;;;;4302642;33;44195;-88
2022/04/02 04:49:38;;;;;;;;;;;3.40;99.80;;;;;;4302179;33;45912;-88
2022/04/02 04:52:05;;;;;;;;;;;3.40;99.90;;;;;;4289191;33;44778;-88
2022/04/02 04:54:32;;;;;;;;;;;3.40;99.90;;;;;;4300920;33;43263;-88
2022/04/02 04:56:59;;;;;;;;;;;3.40;99.80;;;;;;4289519;33;44735;-88
2022/04/02 04:59:26;;;;;;;;;;;3.40;99.80;;;;;;4302306;33;44770;-88
2022/04/02 05:01:53;;;;;;;;;;;3.40;99.70;;;;;;4288698;33;45986;-88
2022/04/02 05:04:21;;;;;;;;;;;3.40;99.70;;;;;;4301843;33;43904;-88
2022/04/02 05:06:49;;;;;;;;;;;3.40;99.70;;;;;;4301979;33;43521;-88
2022/04/02 05:09:16;;;;;;;;;;;3.40;99.70;;;;;;4302331;33;45465;-88
2022/04/02 05:11:43;;;;;;;;;;;3.40;99.70;;;;;;4301765;33;42809;-88
2022/04/02 05:14:12;;;;;;;;;;;3.40;99.60;;;;;;4289150;33;43383;-88
2022/04/02 05:16:39;;;;;;;;;;;3.40;99.50;;;;;;4288905;33;43073;-88
2022/04/02 05:19:07;;;;;;;;;;;3.40;99.50;;;;;;4302024;33;45865;-88
2022/04/02 05:21:34;;;;;;;;;;;3.40;99.50;;;;;;4301728;33;45678;-88
2022/04/02 05:24:01;;;;;;;;;;;3.40;99.60;;;;;;4289180;33;45696;-89
2022/04/02 05:26:28;;;;;;;;;;;3.40;99.50;;;;;;4288630;33;43347;-88
2022/04/02 05:28:56;;;;;;;;;;;3.40;99.30;;;;;;4302025;33;43667;-88
2022/04/02 05:31:23;;;;;;;;;;;3.40;99.30;;;;;;4301603;33;42857;-88
2022/04/02 05:33:50;;;;;;;;;;;3.30;99.20;;;;;;4288540;33;43950;-88
2022/04/02 05:36:18;;;;;;;;;;;3.40;99.10;;;;;;4301854;33;43978;-88
2022/04/02 05:38:45;;;;;;;;;;;3.30;99.10;;;;;;4301837;33;44188;-88
2022/04/02 05:41:12;;;;;;;;;;;3.40;99.10;;;;;;4288837;33;43190;-87
2022/04/02 05:43:39;;;;;;;;;;;3.40;99.40;;;;;;4301781;33;44015;-88
2022/04/02 05:46:06;;;;;;;;;;;3.40;99.00;;;;;;4288475;33;41742;-87
2022/04/02 05:48:33;;;;;;;;;;;3.30;98.90;;;;;;4288128;33;43886;-87
2022/04/02 05:51:00;;;;;;;;;;;3.30;98.90;;;;;;4300580;33;44168;-88
2022/04/02 05:53:27;;;;;;;;;;;3.30;98.90;;;;;;4288578;33;43438;-88
2022/04/02 05:55:54;;;;;;;;;;;3.30;99.30;;;;;;4288453;33;45776;-88
2022/04/02 05:58:22;;;;;;;;;;;3.30;98.90;;;;;;4300297;33;42610;-88
2022/04/02 06:00:49;;;;;;;;;;;3.30;98.90;;;;;;4288491;33;43821;-88
2022/04/02 06:03:19;;;;;;;;;;;3.30;98.90;;;;;;4301337;33;42676;-87
2022/04/02 06:05:48;;;;;;;;;;;3.30;99.10;;;;;;4288672;33;43998;-87
2022/04/02 06:08:16;;;;;;;;;;;3.30;98.80;;;;;;4288616;33;43930;-88
2022/04/02 06:10:45;;;;;;;;;;;3.30;98.70;;;;;;4300990;33;42740;-88
2022/04/02 06:13:13;;;;;;;;;;;3.30;98.70;;;;;;4288177;33;44359;-87
2022/04/02 06:15:41;;;;;;;;;;;3.30;98.70;;;;;;4300951;33;43832;-88
2022/04/02 06:18:08;;;;;;;;;;;3.30;98.70;;;;;;4288163;33;45780;-88
2022/04/02 06:20:35;;;;;;;;;;;3.30;98.70;;;;;;4301022;33;42951;-87
2022/04/02 06:23:02;;;;;;;;;;;3.30;98.60;;;;;;4301360;33;43213;-88
2022/04/02 06:25:29;;;;;;;;;;;3.30;98.70;;;;;;4288417;33;44194;-87
2022/04/02 06:27:56;;;;;;;;;;;3.30;98.60;;;;;;4287911;33;44717;-87
2022/04/02 06:30:23;;;;;;;;;;;3.30;98.60;;;;;;4288389;33;43417;-87
2022/04/02 06:32:54;;;;;;;;;;;3.30;98.60;;;;;;4288447;33;46075;-88
2022/04/02 06:35:21;;;;;;;;;;;3.30;98.50;;;;;;4288261;33;44046;-87
2022/04/02 06:37:50;;;;;;;;;;;3.30;98.50;;;;;;4301191;33;43703;-87
2022/04/02 06:40:17;;;;;;;;;;;3.30;98.30;;;;;;4288527;33;43824;-87
2022/04/02 06:42:44;;;;;;;;;;;3.30;98.40;;;;;;4287756;33;42621;-87
2022/04/02 06:45:11;;;;;;;;;;;3.30;98.40;;;;;;4300964;33;43932;-87
2022/04/02 06:47:38;;;;;;;;;;;3.30;98.30;;;;;;4301227;33;45746;-88
2022/04/02 06:50:07;;;;;;;;;;;3.30;98.40;;;;;;4300338;33;44700;-87
2022/04/02 06:52:34;;;;;;;;;;;3.30;98.30;;;;;;4288103;33;44787;-87
2022/04/02 06:55:02;;;;;;;;;;;3.30;98.20;;;;;;4300603;33;43505;-87
2022/04/02 06:57:29;;;;;;;;;;;3.30;98.30;;;;;;4300769;33;43853;-87
2022/04/02 06:59:56;;;;;;;;;;;3.30;98.10;;;;;;4302535;33;42775;-87
2022/04/02 07:02:23;;;;;;;;;;;3.20;98.10;;;;;;4303399;33;45276;-88
2022/04/02 07:04:50;;;;;;;;;;;3.20;98.00;;;;;;4303267;33;44481;-88
2022/04/02 07:07:17;;;;;;;;;;;3.30;98.00;;;;;;4302427;33;42810;-88
2022/04/02 07:09:44;;;;;;;;;;;3.20;98.10;;;;;;4303244;33;44061;-87
2022/04/02 07:12:12;;;;;;;;;;;3.20;98.00;;;;;;4303528;33;43987;-88
2022/04/02 07:14:39;;;;;;;;;;;3.20;98.00;;;;;;4290210;33;45983;-88
2022/04/02 07:17:06;;;;;;;;;;;3.20;97.90;;;;;;4290710;33;44241;-88
2022/04/02 07:19:34;;;;;;;;;;;3.20;97.90;;;;;;4303717;33;42509;-88
2022/04/02 07:22:01;;;;;;;;;;;3.20;98.00;;;;;;4303203;33;44567;-88
2022/04/02 07:24:30;;;;;;;;;;;3.20;98.00;;;;;;4303689;33;43175;-88
2022/04/02 07:26:57;;;;;;;;;;;3.20;97.80;;;;;;4290140;33;44087;-88
2022/04/02 07:29:26;;;;;;;;;;;3.20;97.70;;;;;;4303196;33;44089;-88
2022/04/02 07:31:53;;;;;;;;;;;3.20;97.80;;;;;;4290265;33;44283;-88
2022/04/02 07:34:20;;;;;;;;;;;3.20;97.90;;;;;;4303742;33;44174;-88
2022/04/02 07:36:48;;;;;;;;;;;3.20;97.90;;;;;;4290483;33;43170;-89
2022/04/02 07:39:20;;;;;;;;;;;3.20;97.70;;;;;;4303367;33;43430;-89
2022/04/02 07:42:07;;;;;;;;;;;3.20;97.90;;;;;;4290668;33;45400;-88
2022/04/02 07:44:34;;;;;;;;;;;3.20;97.80;;;;;;4303298;33;44183;-89
2022/04/02 07:47:02;;;;;;;;;;;3.20;97.70;;;;;;4290092;33;42734;-88
2022/04/02 07:49:30;;;;;;;;;;;3.20;97.70;;;;;;4289931;33;45081;-89
2022/04/02 07:51:57;;;;;;;;;;;3.20;97.60;;;;;;4303123;33;44123;-88
2022/04/02 07:54:25;;;;;;;;;;;3.20;97.70;;;;;;4303030;33;42873;-89
2022/04/02 07:57:00;;;;;;;;;;;3.20;97.80;;;;;;4289843;33;43064;-88
2022/04/02 07:59:37;;;;;;;;;;;3.20;97.80;;;;;;4290147;33;43246;-89
2022/04/02 08:02:36;;;;;;;;;;;3.20;97.80;;;;;;4302919;33;44041;-89
2022/04/02 08:04:53;;;;;;;;;;;3.20;98.00;;;;;;4303053;33;42665;-89
2022/04/02 08:07:20;;;;;;;;;;;3.20;97.50;;;;;;4303215;33;43423;-89
2022/04/02 08:09:49;;;;;;;;;;;3.20;97.60;;;;;;4303028;33;43875;-89
2022/04/02 08:12:16;;;;;;;;;;;3.10;97.60;;;;;;4289283;33;43329;-89
2022/04/02 08:14:44;;;;;;;;;;;3.20;97.60;;;;;;4302723;33;43342;-89
2022/04/02 08:17:12;;;;;;;;;;;3.10;97.60;;;;;;4289808;33;42708;-88
2022/04/02 08:19:40;;;;;;;;;;;3.10;97.50;;;;;;4303061;33;42844;-89
2022/04/02 08:22:07;;;;;;;;;;;3.20;97.50;;;;;;4290007;33;44145;-88
2022/04/02 08:24:34;;;;;;;;;;;3.10;97.50;;;;;;4289547;33;42859;-89
2022/04/02 08:27:02;;;;;;;;;;;3.10;97.40;;;;;;4302352;33;43355;-89
2022/04/02 08:29:38;;;;;;;;;;;3.10;97.50;;;;;;4302421;33;42835;-89
2022/04/02 08:32:16;;;;;;;;;;;3.10;97.40;;;;;;4303032;33;20002;-88
2022/04/02 08:34:50;;;;;;;;;;;3.10;97.40;;;;;;4289694;33;42381;-88
2022/04/02 08:37:17;;;;;;;;;;;3.20;97.40;;;;;;4289235;33;43486;-89
2022/04/02 08:39:53;;;;;;;;;;;3.20;97.20;;;;;;4289156;33;43194;-89
2022/04/02 08:42:26;;;;;;;;;;;3.20;97.40;;;;;;4289367;33;44303;-89
2022/04/02 08:45:05;;;;;;;;;;;3.20;97.40;;;;;;4302935;33;44099;-90
2022/04/02 08:47:51;;;;;;;;;;;3.10;97.40;;;;;;4302751;33;43460;-89
2022/04/02 08:50:24;;;;;;;;;;;3.10;97.40;;;;;;4289714;33;45278;-89
2022/04/02 08:52:52;;;;;;;;;;;3.20;97.30;;;;;;4289693;33;46168;-90
2022/04/02 08:55:34;;;;;;;;;;;3.20;97.20;;;;;;4289419;33;43551;-89
2022/04/02 08:58:03;;;;;;;;;;;3.10;97.20;;;;;;4289495;33;43012;-89
2022/04/02 09:00:37;;;;;;;;;;;3.10;97.10;;;;;;4289541;33;43207;-89
2022/04/02 09:03:07;;;;;;;;;;;3.20;97.20;;;;;;4302825;33;19999;-90
2022/04/02 09:05:38;;;;;;;;;;;3.20;97.20;;;;;;4289319;33;42540;-90
2022/04/02 09:08:24;;;;;;;;;;;3.20;97.30;;;;;;4289076;33;43879;-90
2022/04/02 09:11:06;;;;;;;;;;;3.10;97.30;;;;;;4288904;33;43555;-89
2022/04/02 09:13:44;;;;;;;;;;;3.20;97.40;;;;;;4289153;33;43131;-89
2022/04/02 09:16:35;;;;;;;;;;;3.20;97.40;;;;;;4289616;33;41909;-90
2022/04/02 09:19:11;;;;;;;;;;;3.20;97.20;;;;;;4296436;33;45753;-90
2022/04/02 09:21:38;;;;;;;;;;;3.20;97.10;;;;;;4302405;33;43462;-91
2022/04/02 09:24:14;;;;;;;;;;;3.20;97.20;;;;;;4288468;33;43121;-90
2022/04/02 09:26:51;;;;;;;;;;;3.20;97.10;;;;;;4289138;33;43315;-90
2022/04/02 09:29:36;;;;;;;;;;;3.20;97.10;;;;;;4302374;33;45593;-89
2022/04/02 09:32:33;;;;;;;;;;;3.20;96.90;;;;;;4289132;33;42552;-89
2022/04/02 09:35:00;;;;;;;;;;;3.20;97.20;;;;;;4262585;33;43445;-89
2022/04/02 09:37:30;;;;;;;;;;;3.20;96.90;;;;;;4302164;33;45736;-90
2022/04/02 09:39:57;;;;;;;;;;;3.20;96.90;;;;;;4289284;33;44463;-91
2022/04/02 09:42:30;;;;;;;;;;;3.20;96.90;;;;;;4289190;33;44233;-89
2022/04/02 09:44:59;;;;;;;;;;;3.20;96.90;;;;;;4288932;33;42212;-89
2022/04/02 09:47:38;;;;;;;;;;;3.20;96.90;;;;;;4288529;33;42874;-89
2022/04/02 09:50:13;;;;;;;;;;;3.20;97.00;;;;;;4301743;33;45701;-88
2022/04/02 09:52:46;;;;;;;;;;;3.20;97.00;;;;;;4288800;33;45873;-88
2022/04/02 09:55:16;;;;;;;;;;;3.20;97.00;;;;;;4301124;33;45209;-87
2022/04/02 09:57:58;;;;;;;;;;;3.20;97.10;;;;;;4288637;33;44598;-88
2022/04/02 10:00:30;;;;;;;;;;;3.30;97.10;;;;;;4301480;33;43286;-88
2022/04/02 10:03:08;;;;;;;;;;;3.20;97.10;;;;;;4301096;33;43537;-87
2022/04/02 10:05:45;;;;;;;;;;;3.20;97.00;;;;;;4301204;33;43542;-87
2022/04/02 10:08:12;;;;;;;;;;;3.20;96.90;;;;;;4301419;33;43859;-88
2022/04/02 10:10:41;;;;;;;;;;;3.20;97.00;;;;;;4301098;33;43264;-86
2022/04/02 10:13:08;;;;;;;;;;;3.30;97.00;;;;;;4288521;33;42894;-89
2022/04/02 10:15:41;;;;;;;;;;;3.30;97.30;;;;;;4288776;33;45224;-88
2022/04/02 10:18:10;;;;;;;;;;;3.20;97.30;;;;;;4288894;33;44204;-88
2022/04/02 10:20:38;;;;;;;;;;;3.30;97.20;;;;;;4301521;33;43493;-88
2022/04/02 10:23:15;;;;;;;;;;;3.30;97.20;;;;;;4288814;33;43496;-88
2022/04/02 10:26:00;;;;;;;;;;;3.30;97.40;;;;;;4301150;33;44414;-88
2022/04/02 10:28:29;;;;;;;;;;;3.40;97.50;;;;;;4288629;33;45437;-88
2022/04/02 10:30:57;;;;;;;;;;;3.40;97.60;;;;;;4301074;33;44112;-87
2022/04/02 10:33:30;;;;;;;;;;;3.40;97.40;;;;;;4288254;33;43801;-87
2022/04/02 10:35:57;;;;;;;;;;;3.40;97.40;;;;;;4304387;33;19995;-87
2022/04/02 10:38:30;;;;;;;;;;;3.40;97.40;;;;;;4303890;33;42986;-87
2022/04/02 10:40:58;;;;;;;;;;;3.40;97.20;;;;;;4291335;33;44071;-88
2022/04/02 10:43:26;;;;;;;;;;;3.40;97.10;;;;;;4290618;33;43006;-87
2022/04/02 10:45:54;;;;;;;;;;;3.40;97.20;;;;;;4290601;33;45722;-88
2022/04/02 10:48:40;;;;;;;;;;;3.40;97.40;;;;;;4290922;33;45721;-87
2022/04/02 10:51:08;;;;;;;;;;;3.50;97.40;;;;;;4290770;33;43268;-87
2022/04/02 10:53:41;;;;;;;;;;;3.50;97.30;;;;;;4290473;33;43574;-87
2022/04/02 10:56:14;;;;;;;;;;;3.50;97.20;;;;;;4290904;33;44836;-87
2022/04/02 10:58:50;;;;;;;;;;;3.50;97.10;;;;;;4303589;33;42434;-87
2022/04/02 11:01:18;;;;;;;;;;;3.50;97.00;;;;;;4303612;33;45577;-87
2022/04/02 11:03:48;;;;;;;;;;;3.50;97.10;;;;;;4290469;33;43512;-87
2022/04/02 11:06:35;;;;;;;;;;;3.60;97.20;;;;;;4291164;33;20093;-87
2022/04/02 11:09:22;;;;;;;;;;;3.50;97.20;;;;;;4290748;33;42743;-87
2022/04/02 11:11:50;;;;;;;;;;;3.60;97.10;;;;;;4290291;33;42768;-87
2022/04/02 11:14:20;;;;;;;;;;;3.60;97.10;;;;;;4290343;33;43880;-87
2022/04/02 11:16:48;;;;;;;;;;;3.60;97.10;;;;;;4290461;33;44279;-87
2022/04/02 11:22:03;;;;;;;;;;;3.60;97.20;;;;;;4303604;33;43857;-87
2022/04/02 11:24:34;;;;;;;;;;;3.60;97.50;;;;;;4303081;33;43022;-87
2022/04/02 11:27:02;;;;;;;;;;;3.60;97.30;;;;;;4303543;33;44306;-87
2022/04/02 11:29:30;;;;;;;;;;;3.70;97.40;;;;;;4290098;33;44153;-86
2022/04/02 11:32:00;;;;;;;;;;;3.70;97.50;;;;;;4303328;33;45699;-87
2022/04/02 11:34:28;;;;;;;;;;;3.70;97.20;;;;;;4303388;33;43079;-86
2022/04/02 11:36:59;;;;;;;;;;;3.70;97.20;;;;;;4304019;33;19998;-86
2022/04/02 11:39:48;;;;;;;;;;;3.80;97.40;;;;;;4303274;33;44033;-85
2022/04/02 11:42:17;;;;;;;;;;;3.70;97.40;;;;;;4302945;33;45180;-86
2022/04/02 11:44:49;;;;;;;;;;;3.80;97.60;;;;;;4302810;33;42878;-86
2022/04/02 11:47:24;;;;;;;;;;;3.70;97.60;;;;;;4289409;33;43895;-85
2022/04/02 11:49:53;;;;;;;;;;;3.80;97.60;;;;;;4290386;33;43250;-87
2022/04/02 11:52:20;;;;;;;;;;;3.80;97.60;;;;;;4290215;33;43451;-85
2022/04/02 11:54:47;;;;;;;;;;;3.80;97.60;;;;;;4289891;33;44879;-87
2022/04/02 11:57:15;;;;;;;;;;;3.80;97.70;;;;;;4289872;33;42315;-86
2022/04/02 11:59:52;;;;;;;;;;;3.80;97.90;;;;;;4302770;33;43957;-86
2022/04/02 12:02:33;;;;;;;;;;;3.80;97.90;;;;;;4302547;33;43297;-86
2022/04/02 12:05:00;;;;;;;;;;;3.80;97.90;;;;;;4290038;33;42457;-86
2022/04/02 12:07:47;;;;;;;;;;;3.90;98.00;;;;;;4303582;33;20450;-87
2022/04/02 12:10:42;;;;;;;;;;;3.90;98.10;;;;;;4302872;33;43020;-87
2022/04/02 12:13:10;;;;;;;;;;;3.90;98.10;;;;;;4290024;33;43319;-86
2022/04/02 12:15:38;;;;;;;;;;;3.90;98.10;;;;;;4289357;33;43319;-86
2022/04/02 12:18:07;;;;;;;;;;;3.90;98.20;;;;;;4289181;33;45265;-87
2022/04/02 12:20:36;;;;;;;;;;;4.00;98.20;;;;;;4302278;33;42774;-87
2022/04/02 12:23:14;;;;;;;;;;;4.00;98.20;;;;;;4289369;33;43856;-87
2022/04/02 12:25:46;;;;;;;;;;;4.00;97.90;;;;;;4289451;33;43085;-87
2022/04/02 12:28:17;;;;;;;;;;;4.00;97.90;;;;;;4289656;33;43974;-87
2022/04/02 12:30:48;;;;;;;;;;;4.00;97.70;;;;;;4289107;33;43815;-87
2022/04/02 12:33:21;;;;;;;;;;;4.00;97.60;;;;;;4302146;33;43301;-87
2022/04/02 12:36:06;;;;;;;;;;;4.00;97.50;;;;;;4289250;33;42794;-87
2022/04/02 12:38:40;;;;;;;;;;;4.00;97.40;;;;;;4302972;33;20010;-87
2022/04/02 12:41:18;;;;;;;;;;;4.00;97.40;;;;;;4302409;33;42962;-87
2022/04/02 12:43:49;;;;;;;;;;;4.00;97.40;;;;;;4302391;33;44069;-87
2022/04/02 12:46:24;;;;;;;;;;;4.00;97.30;;;;;;4302635;33;44011;-86
2022/04/02 12:48:52;;;;;;;;;;;4.00;97.40;;;;;;4289118;33;42847;-87
2022/04/02 12:51:20;;;;;;;;;;;4.00;97.60;;;;;;4302190;33;43496;-88
2022/04/02 12:53:48;;;;;;;;;;;4.00;97.80;;;;;;4289372;33;43496;-87
2022/04/02 12:56:18;;;;;;;;;;;4.10;97.90;;;;;;4302007;33;45934;-87
2022/04/02 12:58:46;;;;;;;;;;;4.10;97.80;;;;;;4288689;33;43792;-87
2022/04/02 13:01:25;;;;;;;;;;;4.10;97.80;;;;;;4288664;33;43306;-86
2022/04/02 13:04:06;;;;;;;;;;;4.10;97.90;;;;;;4302111;33;42964;-86
2022/04/02 13:06:34;;;;;;;;;;;4.10;97.90;;;;;;4289219;33;44097;-86
2022/04/02 13:09:06;;;;;;;;;;;4.20;98.00;;;;;;4289981;33;20042;-86
2022/04/02 13:11:36;;;;;;;;;;;4.20;98.10;;;;;;4288704;33;45114;-87
2022/04/02 13:14:10;;;;;;;;;;;4.20;97.90;;;;;;4289046;33;43540;-85
2022/04/02 13:16:44;;;;;;;;;;;4.20;97.50;;;;;;4289519;33;42825;-85
2022/04/02 13:22:15;;;;;;;;;;;4.30;97.50;;;;;;4301664;33;42857;-86
2022/04/02 13:24:42;;;;;;;;;;;4.30;97.40;;;;;;4301905;33;44195;-87
2022/04/02 13:27:12;;;;;;;;;;;4.30;97.40;;;;;;4288566;33;43477;-86
2022/04/02 13:30:01;;;;;;;;;;;4.30;97.50;;;;;;4288754;33;42775;-87
2022/04/02 13:32:31;;;;;;;;;;;4.30;97.40;;;;;;4288342;33;42742;-87
2022/04/02 13:34:58;;;;;;;;;;;4.30;97.40;;;;;;4288317;33;42746;-87
2022/04/02 13:37:25;;;;;;;;;;;4.30;97.30;;;;;;4301420;33;45804;-87
2022/04/02 13:39:59;;;;;;;;;;;4.30;97.40;;;;;;4289559;33;20041;-87
2022/04/02 13:42:28;;;;;;;;;;;4.40;97.60;;;;;;4288207;33;45903;-87
2022/04/02 13:44:56;;;;;;;;;;;4.40;97.60;;;;;;4301235;33;43350;-86
2022/04/02 13:47:24;;;;;;;;;;;4.40;97.50;;;;;;4301246;33;42537;-87
2022/04/02 13:49:55;;;;;;;;;;;4.40;97.60;;;;;;4288515;33;43905;-86
2022/04/02 13:52:24;;;;;;;;;;;4.40;97.60;;;;;;4288100;33;44282;-86
2022/04/02 13:55:03;;;;;;;;;;;4.40;97.80;;;;;;4301486;33;44064;-87
2022/04/02 13:57:31;;;;;;;;;;;4.40;97.80;;;;;;4301041;33;43771;-86
2022/04/02 14:00:02;;;;;;;;;;;4.40;97.40;;;;;;4301291;33;42971;-86
2022/04/02 14:02:30;;;;;;;;;;;4.40;97.40;;;;;;4301124;33;43281;-86
2022/04/02 14:05:25;;;;;;;;;;;4.50;97.30;;;;;;4301417;33;42819;-86
2022/04/02 14:07:52;;;;;;;;;;;4.40;96.90;;;;;;4299647;33;44109;-87
2022/04/02 14:10:19;;;;;;;;;;;4.40;96.70;;;;;;4301598;33;20003;-86
2022/04/02 14:12:49;;;;;;;;;;;4.40;96.50;;;;;;4301194;33;46211;-86
2022/04/02 14:15:18;;;;;;;;;;;4.50;96.50;;;;;;4288347;33;44633;-86
2022/04/02 14:17:48;;;;;;;;;;;4.50;96.60;;;;;;4288306;33;42958;-86
2022/04/02 14:20:16;;;;;;;;;;;4.50;96.70;;;;;;4300915;33;44028;-86
2022/04/02 14:23:02;;;;;;;;;;;4.50;96.70;;;;;;4287846;33;43969;-86
2022/04/02 14:25:48;;;;;;;;;;;4.50;96.80;;;;;;4287876;33;43065;-86
2022/04/02 14:28:34;;;;;;;;;;;4.50;97.10;;;;;;4301224;33;44201;-86
2022/04/02 14:31:19;;;;;;;;;;;4.50;97.10;;;;;;4300758;33;44009;-86
2022/04/02 14:34:01;;;;;;;;;;;4.50;97.20;;;;;;4301367;33;44967;-86
2022/04/02 14:36:43;;;;;;;;;;;4.50;97.30;;;;;;4301204;33;43061;-87
2022/04/02 14:39:19;;;;;;;;;;;4.50;97.50;;;;;;4301116;33;45940;-86
2022/04/02 14:41:58;;;;;;;;;;;4.50;97.70;;;;;;4288466;33;45774;-87
2022/04/02 14:44:25;;;;;;;;;;;4.50;97.80;;;;;;4288359;33;44197;-86
2022/04/02 14:46:56;;;;;;;;;;;4.50;97.60;;;;;;4288114;33;43379;-86
2022/04/02 14:49:26;;;;;;;;;;;4.50;97.50;;;;;;4287631;33;45919;-86
2022/04/02 14:52:19;;;;;;;;;;;4.50;97.40;;;;;;4300742;33;43507;-86
2022/04/02 14:54:46;;;;;;;;;;;4.50;97.40;;;;;;4286037;33;43186;-86
2022/04/02 14:57:25;;;;;;;;;;;4.50;97.20;;;;;;4301036;33;44211;-86